sensor_id;sensor_type;location;lat;lon;timestamp;temperature;humidity
3418;DHT22;68007;51.312;12.372;2023-05-10T00:01:25;17.60;55.40
3418;DHT22;68007;51.312;12.372;2023-05-10T00:03:53;17.60;54.80
3418;DHT22;68007;51.312;12.372;2023-05-10T00:06:20;17.60;54.80
3418;DHT22;68007;51.312;12.372;2023-05-10T00:08:48;17.50;54.80
3418;DHT22;68007;51.312;12.372;2023-05-10T00:11:17;17.50;54.90
3418;DHT22;68007;51.312;12.372;2023-05-10T00:13:44;17.50;55.00
3418;DHT22;68007;51.312;12.372;2023-05-10T00:16:12;17.50;55.00
3418;DHT22;68007;51.312;12.372;2023-05-10T00:18:40;17.40;55.20
3418;DHT22;68007;51.312;12.372;2023-05-10T00:21:07;17.40;55.10
3418;DHT22;68007;51.312;12.372;2023-05-10T00:23:35;17.40;55.00
3418;DHT22;68007;51.312;12.372;2023-05-10T00:26:02;17.40;55.20
3418;DHT22;68007;51.312;12.372;2023-05-10T00:28:31;17.30;55.30
3418;DHT22;68007;51.312;12.372;2023-05-10T00:30:59;17.30;55.30
3418;DHT22;68007;51.312;12.372;2023-05-10T00:33:26;17.30;55.40
3418;DHT22;68007;51.312;12.372;2023-05-10T00:35:53;17.30;55.50
3418;DHT22;68007;51.312;12.372;2023-05-10T00:38:21;17.20;55.60
3418;DHT22;68007;51.312;12.372;2023-05-10T00:40:49;17.20;55.60
3418;DHT22;68007;51.312;12.372;2023-05-10T00:43:16;17.10;55.80
3418;DHT22;68007;51.312;12.372;2023-05-10T00:45:45;17.20;55.80
3418;DHT22;68007;51.312;12.372;2023-05-10T00:48:13;17.20;55.80
3418;DHT22;68007;51.312;12.372;2023-05-10T00:50:41;17.10;55.70
3418;DHT22;68007;51.312;12.372;2023-05-10T00:53:08;17.10;55.80
3418;DHT22;68007;51.312;12.372;2023-05-10T00:55:36;17.10;55.90
3418;DHT22;68007;51.312;12.372;2023-05-10T00:58:04;17.10;56.00
3418;DHT22;68007;51.312;12.372;2023-05-10T01:00:32;17.10;56.00
3418;DHT22;68007;51.312;12.372;2023-05-10T01:03:02;17.10;56.10
3418;DHT22;68007;51.312;12.372;2023-05-10T01:05:30;17.00;56.20
3418;DHT22;68007;51.312;12.372;2023-05-10T01:07:58;17.00;56.30
3418;DHT22;68007;51.312;12.372;2023-05-10T01:10:25;16.90;56.40
3418;DHT22;68007;51.312;12.372;2023-05-10T01:12:53;16.90;56.30
3418;DHT22;68007;51.312;12.372;2023-05-10T01:15:21;16.90;56.40
3418;DHT22;68007;51.312;12.372;2023-05-10T01:17:49;16.90;56.50
3418;DHT22;68007;51.312;12.372;2023-05-10T01:20:18;16.80;56.90
3418;DHT22;68007;51.312;12.372;2023-05-10T01:26:28;16.80;56.50
3418;DHT22;68007;51.312;12.372;2023-05-10T01:29:24;16.70;56.50
3418;DHT22;68007;51.312;12.372;2023-05-10T01:32:21;16.70;56.80
3418;DHT22;68007;51.312;12.372;2023-05-10T01:34:55;16.70;56.90
3418;DHT22;68007;51.312;12.372;2023-05-10T01:37:31;16.70;56.90
3418;DHT22;68007;51.312;12.372;2023-05-10T01:40:03;16.70;56.90
3418;DHT22;68007;51.312;12.372;2023-05-10T01:42:42;16.60;56.90
3418;DHT22;68007;51.312;12.372;2023-05-10T01:45:20;16.70;56.80
3418;DHT22;68007;51.312;12.372;2023-05-10T01:48:02;16.60;57.00
3418;DHT22;68007;51.312;12.372;2023-05-10T01:50:32;16.60;56.90
3418;DHT22;68007;51.312;12.372;2023-05-10T01:53:02;16.60;57.00
3418;DHT22;68007;51.312;12.372;2023-05-10T01:55:33;16.60;57.10
3418;DHT22;68007;51.312;12.372;2023-05-10T01:58:07;16.50;57.20
3418;DHT22;68007;51.312;12.372;2023-05-10T02:00:36;16.40;57.30
3418;DHT22;68007;51.312;12.372;2023-05-10T02:03:09;16.50;57.40
3418;DHT22;68007;51.312;12.372;2023-05-10T02:05:38;16.40;57.40
3418;DHT22;68007;51.312;12.372;2023-05-10T02:08:07;16.40;57.60
3418;DHT22;68007;51.312;12.372;2023-05-10T02:10:35;16.40;57.50
3418;DHT22;68007;51.312;12.372;2023-05-10T02:13:03;16.30;57.60
3418;DHT22;68007;51.312;12.372;2023-05-10T02:15:32;16.40;57.60
3418;DHT22;68007;51.312;12.372;2023-05-10T02:18:02;16.30;57.70
3418;DHT22;68007;51.312;12.372;2023-05-10T02:20:33;16.40;57.70
3418;DHT22;68007;51.312;12.372;2023-05-10T02:23:02;16.30;57.90
3418;DHT22;68007;51.312;12.372;2023-05-10T02:25:31;16.30;57.90
3418;DHT22;68007;51.312;12.372;2023-05-10T02:28:02;16.30;58.60
3418;DHT22;68007;51.312;12.372;2023-05-10T02:30:31;16.20;57.90
3418;DHT22;68007;51.312;12.372;2023-05-10T02:33:00;16.20;57.90
3418;DHT22;68007;51.312;12.372;2023-05-10T02:35:28;16.20;57.90
3418;DHT22;68007;51.312;12.372;2023-05-10T02:37:58;16.20;58.10
3418;DHT22;68007;51.312;12.372;2023-05-10T02:40:27;16.20;58.30
3418;DHT22;68007;51.312;12.372;2023-05-10T02:42:57;16.10;58.40
3418;DHT22;68007;51.312;12.372;2023-05-10T02:45:28;16.10;58.40
3418;DHT22;68007;51.312;12.372;2023-05-10T02:47:57;16.10;58.40
3418;DHT22;68007;51.312;12.372;2023-05-10T02:50:27;16.00;58.60
3418;DHT22;68007;51.312;12.372;2023-05-10T02:53:00;16.00;58.70
3418;DHT22;68007;51.312;12.372;2023-05-10T02:55:35;16.00;58.60
3418;DHT22;68007;51.312;12.372;2023-05-10T02:58:03;16.00;58.90
3418;DHT22;68007;51.312;12.372;2023-05-10T03:00:31;16.00;58.90
3418;DHT22;68007;51.312;12.372;2023-05-10T03:02:59;16.00;58.80
3418;DHT22;68007;51.312;12.372;2023-05-10T03:05:26;15.90;58.80
3418;DHT22;68007;51.312;12.372;2023-05-10T03:07:54;15.90;59.00
3418;DHT22;68007;51.312;12.372;2023-05-10T03:10:26;15.90;59.20
3418;DHT22;68007;51.312;12.372;2023-05-10T03:13:06;15.80;59.20
3418;DHT22;68007;51.312;12.372;2023-05-10T03:15:40;15.80;59.10
3418;DHT22;68007;51.312;12.372;2023-05-10T03:18:11;15.80;59.30
3418;DHT22;68007;51.312;12.372;2023-05-10T03:20:42;15.80;59.30
3418;DHT22;68007;51.312;12.372;2023-05-10T03:23:16;15.80;59.40
3418;DHT22;68007;51.312;12.372;2023-05-10T03:25:48;15.70;59.40
3418;DHT22;68007;51.312;12.372;2023-05-10T03:28:17;15.70;59.70
3418;DHT22;68007;51.312;12.372;2023-05-10T03:30:46;15.70;59.50
3418;DHT22;68007;51.312;12.372;2023-05-10T03:33:14;15.70;59.70
3418;DHT22;68007;51.312;12.372;2023-05-10T03:35:41;15.70;59.70
3418;DHT22;68007;51.312;12.372;2023-05-10T03:38:11;15.70;59.80
3418;DHT22;68007;51.312;12.372;2023-05-10T03:40:39;15.70;59.90
3418;DHT22;68007;51.312;12.372;2023-05-10T03:43:08;15.60;60.00
3418;DHT22;68007;51.312;12.372;2023-05-10T03:45:36;15.60;60.00
3418;DHT22;68007;51.312;12.372;2023-05-10T03:48:03;15.60;60.20
3418;DHT22;68007;51.312;12.372;2023-05-10T03:50:31;15.50;60.20
3418;DHT22;68007;51.312;12.372;2023-05-10T03:52:59;15.50;60.30
3418;DHT22;68007;51.312;12.372;2023-05-10T03:55:26;15.50;60.40
3418;DHT22;68007;51.312;12.372;2023-05-10T03:57:54;15.60;60.50
3418;DHT22;68007;51.312;12.372;2023-05-10T04:00:23;15.50;60.60
3418;DHT22;68007;51.312;12.372;2023-05-10T04:02:51;15.50;60.30
3418;DHT22;68007;51.312;12.372;2023-05-10T04:05:18;15.50;60.60
3418;DHT22;68007;51.312;12.372;2023-05-10T04:07:46;15.50;60.60
3418;DHT22;68007;51.312;12.372;2023-05-10T04:10:15;15.50;60.80
3418;DHT22;68007;51.312;12.372;2023-05-10T04:12:43;15.40;60.90
3418;DHT22;68007;51.312;12.372;2023-05-10T04:15:11;15.40;60.90
3418;DHT22;68007;51.312;12.372;2023-05-10T04:17:40;15.40;60.90
3418;DHT22;68007;51.312;12.372;2023-05-10T04:20:08;15.40;61.60
3418;DHT22;68007;51.312;12.372;2023-05-10T04:22:36;15.40;61.00
3418;DHT22;68007;51.312;12.372;2023-05-10T04:25:04;15.40;61.10
3418;DHT22;68007;51.312;12.372;2023-05-10T04:27:32;15.40;61.40
3418;DHT22;68007;51.312;12.372;2023-05-10T04:29:59;15.30;61.20
3418;DHT22;68007;51.312;12.372;2023-05-10T04:32:27;15.40;61.40
3418;DHT22;68007;51.312;12.372;2023-05-10T04:34:56;15.30;61.80
3418;DHT22;68007;51.312;12.372;2023-05-10T04:37:24;15.40;61.90
3418;DHT22;68007;51.312;12.372;2023-05-10T04:39:52;15.40;61.70
3418;DHT22;68007;51.312;12.372;2023-05-10T04:42:19;15.30;62.00
3418;DHT22;68007;51.312;12.372;2023-05-10T04:44:47;15.30;61.90
3418;DHT22;68007;51.312;12.372;2023-05-10T04:47:14;15.30;62.10
3418;DHT22;68007;51.312;12.372;2023-05-10T04:49:42;15.30;61.90
3418;DHT22;68007;51.312;12.372;2023-05-10T04:52:11;15.40;62.10
3418;DHT22;68007;51.312;12.372;2023-05-10T04:54:38;15.40;62.10
3418;DHT22;68007;51.312;12.372;2023-05-10T04:57:06;15.30;62.10
3418;DHT22;68007;51.312;12.372;2023-05-10T04:59:35;15.40;62.30
3418;DHT22;68007;51.312;12.372;2023-05-10T05:02:03;15.40;62.30
3418;DHT22;68007;51.312;12.372;2023-05-10T05:04:30;15.40;62.40
3418;DHT22;68007;51.312;12.372;2023-05-10T05:06:58;15.40;62.40
3418;DHT22;68007;51.312;12.372;2023-05-10T05:09:27;15.40;62.10
3418;DHT22;68007;51.312;12.372;2023-05-10T05:11:54;15.40;62.50
3418;DHT22;68007;51.312;12.372;2023-05-10T05:14:22;15.40;62.50
3418;DHT22;68007;51.312;12.372;2023-05-10T05:16:51;15.50;62.50
3418;DHT22;68007;51.312;12.372;2023-05-10T05:19:18;15.40;62.10
3418;DHT22;68007;51.312;12.372;2023-05-10T05:21:46;15.40;62.20
3418;DHT22;68007;51.312;12.372;2023-05-10T05:24:13;15.40;61.90
3418;DHT22;68007;51.312;12.372;2023-05-10T05:26:42;15.40;62.40
3418;DHT22;68007;51.312;12.372;2023-05-10T05:29:10;15.40;62.80
3418;DHT22;68007;51.312;12.372;2023-05-10T05:31:37;15.30;62.80
3418;DHT22;68007;51.312;12.372;2023-05-10T05:34:05;15.40;63.20
3418;DHT22;68007;51.312;12.372;2023-05-10T05:36:35;15.40;63.60
3418;DHT22;68007;51.312;12.372;2023-05-10T05:39:04;15.40;62.90
3418;DHT22;68007;51.312;12.372;2023-05-10T05:41:31;15.40;63.20
3418;DHT22;68007;51.312;12.372;2023-05-10T05:44:00;15.50;63.40
3418;DHT22;68007;51.312;12.372;2023-05-10T05:46:28;15.40;63.70
3418;DHT22;68007;51.312;12.372;2023-05-10T05:48:55;15.40;64.10
3418;DHT22;68007;51.312;12.372;2023-05-10T05:51:23;15.40;64.50
3418;DHT22;68007;51.312;12.372;2023-05-10T05:53:51;15.40;63.60
3418;DHT22;68007;51.312;12.372;2023-05-10T05:56:19;15.50;64.00
3418;DHT22;68007;51.312;12.372;2023-05-10T05:58:50;15.40;64.40
3418;DHT22;68007;51.312;12.372;2023-05-10T06:01:19;15.50;64.10
3418;DHT22;68007;51.312;12.372;2023-05-10T06:03:47;15.50;64.70
3418;DHT22;68007;51.312;12.372;2023-05-10T06:06:14;15.50;64.70
3418;DHT22;68007;51.312;12.372;2023-05-10T06:08:42;15.50;64.90
3418;DHT22;68007;51.312;12.372;2023-05-10T06:11:09;15.50;64.90
3418;DHT22;68007;51.312;12.372;2023-05-10T06:13:37;15.50;65.10
3418;DHT22;68007;51.312;12.372;2023-05-10T06:16:05;15.50;64.40
3418;DHT22;68007;51.312;12.372;2023-05-10T06:18:34;15.60;65.20
3418;DHT22;68007;51.312;12.372;2023-05-10T06:21:02;15.60;65.30
3418;DHT22;68007;51.312;12.372;2023-05-10T06:23:29;15.50;65.30
3418;DHT22;68007;51.312;12.372;2023-05-10T06:25:57;15.50;65.70
3418;DHT22;68007;51.312;12.372;2023-05-10T06:28:24;15.50;66.20
3418;DHT22;68007;51.312;12.372;2023-05-10T06:30:52;15.50;65.30
3418;DHT22;68007;51.312;12.372;2023-05-10T06:33:19;15.50;65.90
3418;DHT22;68007;51.312;12.372;2023-05-10T06:35:48;15.50;65.50
3418;DHT22;68007;51.312;12.372;2023-05-10T06:38:16;15.50;65.40
3418;DHT22;68007;51.312;12.372;2023-05-10T06:40:43;15.50;65.20
3418;DHT22;68007;51.312;12.372;2023-05-10T06:43:11;15.50;66.00
3418;DHT22;68007;51.312;12.372;2023-05-10T06:45:38;15.50;65.80
3418;DHT22;68007;51.312;12.372;2023-05-10T06:48:07;15.50;66.20
3418;DHT22;68007;51.312;12.372;2023-05-10T06:50:34;15.60;65.50
3418;DHT22;68007;51.312;12.372;2023-05-10T06:53:03;15.60;66.40
3418;DHT22;68007;51.312;12.372;2023-05-10T06:55:31;15.70;66.40
3418;DHT22;68007;51.312;12.372;2023-05-10T06:57:58;15.70;66.30
3418;DHT22;68007;51.312;12.372;2023-05-10T07:00:26;15.70;66.60
3418;DHT22;68007;51.312;12.372;2023-05-10T07:02:53;15.70;66.50
3418;DHT22;68007;51.312;12.372;2023-05-10T07:05:21;15.70;66.70
3418;DHT22;68007;51.312;12.372;2023-05-10T07:07:48;15.70;66.80
3418;DHT22;68007;51.312;12.372;2023-05-10T07:10:18;15.80;66.90
3418;DHT22;68007;51.312;12.372;2023-05-10T07:12:45;15.80;66.60
3418;DHT22;68007;51.312;12.372;2023-05-10T07:15:13;15.80;67.10
3418;DHT22;68007;51.312;12.372;2023-05-10T07:17:40;15.80;66.70
3418;DHT22;68007;51.312;12.372;2023-05-10T07:20:08;15.90;67.20
3418;DHT22;68007;51.312;12.372;2023-05-10T07:22:36;15.90;66.70
3418;DHT22;68007;51.312;12.372;2023-05-10T07:25:04;15.90;66.70
3418;DHT22;68007;51.312;12.372;2023-05-10T07:27:33;16.00;67.10
3418;DHT22;68007;51.312;12.372;2023-05-10T07:30:01;15.90;67.10
3418;DHT22;68007;51.312;12.372;2023-05-10T07:32:28;16.00;67.50
3418;DHT22;68007;51.312;12.372;2023-05-10T07:34:56;16.00;68.00
3418;DHT22;68007;51.312;12.372;2023-05-10T07:37:24;16.00;67.40
3418;DHT22;68007;51.312;12.372;2023-05-10T07:39:51;16.00;67.40
3418;DHT22;68007;51.312;12.372;2023-05-10T07:42:19;16.00;67.70
3418;DHT22;68007;51.312;12.372;2023-05-10T07:44:48;16.00;67.80
3418;DHT22;68007;51.312;12.372;2023-05-10T07:47:15;16.00;67.70
3418;DHT22;68007;51.312;12.372;2023-05-10T07:49:43;16.10;67.90
3418;DHT22;68007;51.312;12.372;2023-05-10T07:52:10;16.10;67.70
3418;DHT22;68007;51.312;12.372;2023-05-10T07:54:38;16.10;68.10
3418;DHT22;68007;51.312;12.372;2023-05-10T07:57:05;16.20;68.10
3418;DHT22;68007;51.312;12.372;2023-05-10T07:59:33;16.10;68.40
3418;DHT22;68007;51.312;12.372;2023-05-10T08:02:02;16.10;68.70
3418;DHT22;68007;51.312;12.372;2023-05-10T08:04:29;16.10;68.90
3418;DHT22;68007;51.312;12.372;2023-05-10T08:06:57;16.10;69.40
3418;DHT22;68007;51.312;12.372;2023-05-10T08:09:24;16.10;69.70
3418;DHT22;68007;51.312;12.372;2023-05-10T08:11:51;16.20;69.70
3418;DHT22;68007;51.312;12.372;2023-05-10T08:14:19;16.10;69.80
3418;DHT22;68007;51.312;12.372;2023-05-10T08:16:47;16.20;70.00
3418;DHT22;68007;51.312;12.372;2023-05-10T08:19:15;16.10;70.60
3418;DHT22;68007;51.312;12.372;2023-05-10T08:21:45;16.10;71.00
3418;DHT22;68007;51.312;12.372;2023-05-10T08:24:12;16.10;71.30
3418;DHT22;68007;51.312;12.372;2023-05-10T08:26:40;16.10;72.00
3418;DHT22;68007;51.312;12.372;2023-05-10T08:29:07;16.20;72.10
3418;DHT22;68007;51.312;12.372;2023-05-10T08:31:35;16.20;71.90
3418;DHT22;68007;51.312;12.372;2023-05-10T08:34:02;16.10;72.10
3418;DHT22;68007;51.312;12.372;2023-05-10T08:36:31;16.10;72.40
3418;DHT22;68007;51.312;12.372;2023-05-10T08:38:59;16.10;72.70
3418;DHT22;68007;51.312;12.372;2023-05-10T08:41:27;16.00;73.00
3418;DHT22;68007;51.312;12.372;2023-05-10T08:43:54;15.90;73.50
3418;DHT22;68007;51.312;12.372;2023-05-10T08:46:22;15.90;74.00
3418;DHT22;68007;51.312;12.372;2023-05-10T08:48:51;16.00;74.10
3418;DHT22;68007;51.312;12.372;2023-05-10T08:51:19;15.90;74.10
3418;DHT22;68007;51.312;12.372;2023-05-10T08:53:51;15.90;74.40
3418;DHT22;68007;51.312;12.372;2023-05-10T08:56:19;15.90;74.50
3418;DHT22;68007;51.312;12.372;2023-05-10T08:58:47;15.90;74.50
3418;DHT22;68007;51.312;12.372;2023-05-10T09:01:16;16.00;75.10
3418;DHT22;68007;51.312;12.372;2023-05-10T09:03:46;16.00;75.50
3418;DHT22;68007;51.312;12.372;2023-05-10T09:06:14;16.00;76.40
3418;DHT22;68007;51.312;12.372;2023-05-10T09:08:42;16.10;76.60
3418;DHT22;68007;51.312;12.372;2023-05-10T09:11:12;16.00;77.40
3418;DHT22;68007;51.312;12.372;2023-05-10T09:13:40;15.80;78.10
3418;DHT22;68007;51.312;12.372;2023-05-10T09:16:09;15.90;78.90
3418;DHT22;68007;51.312;12.372;2023-05-10T09:18:37;15.80;79.50
3418;DHT22;68007;51.312;12.372;2023-05-10T09:21:04;15.90;80.10
3418;DHT22;68007;51.312;12.372;2023-05-10T09:23:32;15.90;80.20
3418;DHT22;68007;51.312;12.372;2023-05-10T09:26:02;15.90;80.30
3418;DHT22;68007;51.312;12.372;2023-05-10T09:28:33;16.00;80.80
3418;DHT22;68007;51.312;12.372;2023-05-10T09:31:00;16.00;81.40
3418;DHT22;68007;51.312;12.372;2023-05-10T09:33:28;16.00;80.90
3418;DHT22;68007;51.312;12.372;2023-05-10T09:36:06;16.00;81.80
3418;DHT22;68007;51.312;12.372;2023-05-10T09:38:45;16.10;81.70
3418;DHT22;68007;51.312;12.372;2023-05-10T09:41:16;16.10;82.30
3418;DHT22;68007;51.312;12.372;2023-05-10T09:43:45;16.10;83.20
3418;DHT22;68007;51.312;12.372;2023-05-10T09:46:13;16.10;82.50
3418;DHT22;68007;51.312;12.372;2023-05-10T09:48:43;16.10;83.60
3418;DHT22;68007;51.312;12.372;2023-05-10T09:51:18;16.00;84.20
3418;DHT22;68007;51.312;12.372;2023-05-10T09:53:46;16.10;83.50
3418;DHT22;68007;51.312;12.372;2023-05-10T09:56:32;16.10;84.00
3418;DHT22;68007;51.312;12.372;2023-05-10T09:59:05;16.10;85.00
3418;DHT22;68007;51.312;12.372;2023-05-10T10:01:33;16.20;85.70
3418;DHT22;68007;51.312;12.372;2023-05-10T10:04:03;16.20;86.60
3418;DHT22;68007;51.312;12.372;2023-05-10T10:06:35;16.20;86.60
3418;DHT22;68007;51.312;12.372;2023-05-10T10:09:04;16.20;86.50
3418;DHT22;68007;51.312;12.372;2023-05-10T10:11:35;16.20;86.90
3418;DHT22;68007;51.312;12.372;2023-05-10T10:14:04;16.20;86.70
3418;DHT22;68007;51.312;12.372;2023-05-10T10:16:32;16.30;87.40
3418;DHT22;68007;51.312;12.372;2023-05-10T10:19:00;16.30;86.90
3418;DHT22;68007;51.312;12.372;2023-05-10T10:21:28;16.30;86.50
3418;DHT22;68007;51.312;12.372;2023-05-10T10:23:57;16.40;88.00
3418;DHT22;68007;51.312;12.372;2023-05-10T10:26:25;16.40;88.40
3418;DHT22;68007;51.312;12.372;2023-05-10T10:29:03;16.40;88.50
3418;DHT22;68007;51.312;12.372;2023-05-10T10:31:40;16.40;88.90
3418;DHT22;68007;51.312;12.372;2023-05-10T10:34:09;16.50;89.60
3418;DHT22;68007;51.312;12.372;2023-05-10T10:36:44;16.40;88.70
3418;DHT22;68007;51.312;12.372;2023-05-10T10:39:12;16.40;88.80
3418;DHT22;68007;51.312;12.372;2023-05-10T10:41:49;16.30;89.50
3418;DHT22;68007;51.312;12.372;2023-05-10T10:44:34;16.20;90.30
3418;DHT22;68007;51.312;12.372;2023-05-10T10:47:05;16.20;90.30
3418;DHT22;68007;51.312;12.372;2023-05-10T10:49:42;16.20;90.30
3418;DHT22;68007;51.312;12.372;2023-05-10T10:52:21;16.30;90.50
3418;DHT22;68007;51.312;12.372;2023-05-10T10:54:52;16.30;90.50
3418;DHT22;68007;51.312;12.372;2023-05-10T10:57:20;16.30;90.80
3418;DHT22;68007;51.312;12.372;2023-05-10T10:59:49;16.30;91.00
3418;DHT22;68007;51.312;12.372;2023-05-10T11:02:43;16.30;91.20
3418;DHT22;68007;51.312;12.372;2023-05-10T11:05:36;16.30;91.20
3418;DHT22;68007;51.312;12.372;2023-05-10T11:08:11;16.30;91.40
3418;DHT22;68007;51.312;12.372;2023-05-10T11:10:40;16.30;91.50
3418;DHT22;68007;51.312;12.372;2023-05-10T11:13:08;16.30;91.80
3418;DHT22;68007;51.312;12.372;2023-05-10T11:15:37;16.40;91.50
3418;DHT22;68007;51.312;12.372;2023-05-10T11:18:19;16.40;91.70
3418;DHT22;68007;51.312;12.372;2023-05-10T11:20:50;16.50;92.40
3418;DHT22;68007;51.312;12.372;2023-05-10T11:23:18;16.50;91.90
3418;DHT22;68007;51.312;12.372;2023-05-10T11:25:48;16.40;92.30
3418;DHT22;68007;51.312;12.372;2023-05-10T11:28:17;16.50;92.60
3418;DHT22;68007;51.312;12.372;2023-05-10T11:30:45;16.50;92.80
3418;DHT22;68007;51.312;12.372;2023-05-10T11:33:18;16.50;92.40
3418;DHT22;68007;51.312;12.372;2023-05-10T11:35:46;16.50;93.10
3418;DHT22;68007;51.312;12.372;2023-05-10T11:38:14;16.60;93.00
3418;DHT22;68007;51.312;12.372;2023-05-10T11:40:41;16.60;93.00
3418;DHT22;68007;51.312;12.372;2023-05-10T11:43:09;16.60;93.30
3418;DHT22;68007;51.312;12.372;2023-05-10T11:45:39;16.70;93.40
3418;DHT22;68007;51.312;12.372;2023-05-10T11:48:07;16.70;93.30
3418;DHT22;68007;51.312;12.372;2023-05-10T11:50:36;16.70;93.70
3418;DHT22;68007;51.312;12.372;2023-05-10T11:53:04;16.80;93.80
3418;DHT22;68007;51.312;12.372;2023-05-10T11:55:33;16.80;94.20
3418;DHT22;68007;51.312;12.372;2023-05-10T11:58:01;16.80;93.90
3418;DHT22;68007;51.312;12.372;2023-05-10T12:00:30;16.80;93.40
3418;DHT22;68007;51.312;12.372;2023-05-10T12:02:59;16.80;93.70
3418;DHT22;68007;51.312;12.372;2023-05-10T12:05:27;16.90;93.90
3418;DHT22;68007;51.312;12.372;2023-05-10T12:08:11;16.90;94.30
3418;DHT22;68007;51.312;12.372;2023-05-10T12:10:39;16.90;94.70
3418;DHT22;68007;51.312;12.372;2023-05-10T12:13:11;16.90;93.80
3418;DHT22;68007;51.312;12.372;2023-05-10T12:15:40;16.90;94.10
3418;DHT22;68007;51.312;12.372;2023-05-10T12:18:09;17.00;94.90
3418;DHT22;68007;51.312;12.372;2023-05-10T12:20:38;17.00;94.90
3418;DHT22;68007;51.312;12.372;2023-05-10T12:23:07;17.00;94.80
3418;DHT22;68007;51.312;12.372;2023-05-10T12:25:37;17.00;95.30
3418;DHT22;68007;51.312;12.372;2023-05-10T12:28:07;17.00;94.80
3418;DHT22;68007;51.312;12.372;2023-05-10T12:30:35;17.10;95.30
3418;DHT22;68007;51.312;12.372;2023-05-10T12:33:08;17.10;95.00
3418;DHT22;68007;51.312;12.372;2023-05-10T12:35:44;17.10;95.00
3418;DHT22;68007;51.312;12.372;2023-05-10T12:38:25;17.10;95.50
3418;DHT22;68007;51.312;12.372;2023-05-10T12:40:57;17.10;95.70
3418;DHT22;68007;51.312;12.372;2023-05-10T12:43:25;17.10;95.40
3418;DHT22;68007;51.312;12.372;2023-05-10T12:45:53;17.20;95.90
3418;DHT22;68007;51.312;12.372;2023-05-10T12:48:20;17.20;95.40
3418;DHT22;68007;51.312;12.372;2023-05-10T12:50:48;17.20;95.60
3418;DHT22;68007;51.312;12.372;2023-05-10T12:53:16;17.20;95.20
3418;DHT22;68007;51.312;12.372;2023-05-10T12:55:44;17.20;95.00
3418;DHT22;68007;51.312;12.372;2023-05-10T12:58:13;17.30;95.50
3418;DHT22;68007;51.312;12.372;2023-05-10T13:00:41;17.30;95.80
3418;DHT22;68007;51.312;12.372;2023-05-10T13:03:09;17.30;95.10
3418;DHT22;68007;51.312;12.372;2023-05-10T13:05:37;17.30;95.40
3418;DHT22;68007;51.312;12.372;2023-05-10T13:08:05;17.30;95.70
3418;DHT22;68007;51.312;12.372;2023-05-10T13:10:32;17.40;95.20
3418;DHT22;68007;51.312;12.372;2023-05-10T13:13:00;17.40;95.70
3418;DHT22;68007;51.312;12.372;2023-05-10T13:15:29;17.40;95.60
3418;DHT22;68007;51.312;12.372;2023-05-10T13:17:56;17.40;95.70
3418;DHT22;68007;51.312;12.372;2023-05-10T13:20:24;17.40;95.50
3418;DHT22;68007;51.312;12.372;2023-05-10T13:22:53;17.40;95.60
3418;DHT22;68007;51.312;12.372;2023-05-10T13:25:20;17.40;95.70
3418;DHT22;68007;51.312;12.372;2023-05-10T13:27:48;17.40;95.80
3418;DHT22;68007;51.312;12.372;2023-05-10T13:30:15;17.50;96.00
3418;DHT22;68007;51.312;12.372;2023-05-10T13:32:44;17.40;96.10
3418;DHT22;68007;51.312;12.372;2023-05-10T13:35:12;17.50;95.80
3418;DHT22;68007;51.312;12.372;2023-05-10T13:37:39;17.50;95.70
3418;DHT22;68007;51.312;12.372;2023-05-10T13:40:08;17.50;96.10
3418;DHT22;68007;51.312;12.372;2023-05-10T13:42:35;17.50;96.10
3418;DHT22;68007;51.312;12.372;2023-05-10T13:45:04;17.50;96.20
3418;DHT22;68007;51.312;12.372;2023-05-10T13:47:32;17.50;96.60
3418;DHT22;68007;51.312;12.372;2023-05-10T13:50:01;17.50;96.40
3418;DHT22;68007;51.312;12.372;2023-05-10T13:52:29;17.40;96.20
3418;DHT22;68007;51.312;12.372;2023-05-10T13:54:57;17.50;96.10
3418;DHT22;68007;51.312;12.372;2023-05-10T13:57:24;17.50;96.10
3418;DHT22;68007;51.312;12.372;2023-05-10T13:59:52;17.50;95.60
3418;DHT22;68007;51.312;12.372;2023-05-10T14:02:19;17.50;95.40
3418;DHT22;68007;51.312;12.372;2023-05-10T14:04:47;17.60;96.10
3418;DHT22;68007;51.312;12.372;2023-05-10T14:07:16;17.60;95.90
3418;DHT22;68007;51.312;12.372;2023-05-10T14:09:44;17.60;95.70
3418;DHT22;68007;51.312;12.372;2023-05-10T14:12:11;17.60;96.00
3418;DHT22;68007;51.312;12.372;2023-05-10T14:14:40;17.60;96.20
3418;DHT22;68007;51.312;12.372;2023-05-10T14:17:08;17.60;96.20
3418;DHT22;68007;51.312;12.372;2023-05-10T14:19:35;17.60;96.30
3418;DHT22;68007;51.312;12.372;2023-05-10T14:22:03;17.60;95.90
3418;DHT22;68007;51.312;12.372;2023-05-10T14:24:32;17.60;96.10
3418;DHT22;68007;51.312;12.372;2023-05-10T14:26:59;17.70;96.30
3418;DHT22;68007;51.312;12.372;2023-05-10T14:29:27;17.70;96.20
3418;DHT22;68007;51.312;12.372;2023-05-10T14:31:54;17.60;96.60
3418;DHT22;68007;51.312;12.372;2023-05-10T14:34:22;17.60;96.50
3418;DHT22;68007;51.312;12.372;2023-05-10T14:36:49;17.70;96.40
3418;DHT22;68007;51.312;12.372;2023-05-10T14:39:17;17.70;96.60
3418;DHT22;68007;51.312;12.372;2023-05-10T14:41:46;17.70;95.80
3418;DHT22;68007;51.312;12.372;2023-05-10T14:44:13;17.70;95.90
3418;DHT22;68007;51.312;12.372;2023-05-10T14:46:41;17.60;96.10
3418;DHT22;68007;51.312;12.372;2023-05-10T14:49:09;17.70;95.90
3418;DHT22;68007;51.312;12.372;2023-05-10T14:51:36;17.70;95.80
3418;DHT22;68007;51.312;12.372;2023-05-10T14:54:04;17.70;95.30
3418;DHT22;68007;51.312;12.372;2023-05-10T14:56:32;17.70;95.30
3418;DHT22;68007;51.312;12.372;2023-05-10T14:59:00;17.70;95.40
3418;DHT22;68007;51.312;12.372;2023-05-10T15:01:30;17.60;95.00
3418;DHT22;68007;51.312;12.372;2023-05-10T15:03:59;17.60;95.60
3418;DHT22;68007;51.312;12.372;2023-05-10T15:06:32;17.50;95.70
3418;DHT22;68007;51.312;12.372;2023-05-10T15:09:02;17.50;95.70
3418;DHT22;68007;51.312;12.372;2023-05-10T15:11:30;17.30;95.70
3418;DHT22;68007;51.312;12.372;2023-05-10T15:13:59;17.20;96.10
3418;DHT22;68007;51.312;12.372;2023-05-10T15:16:27;17.30;96.00
3418;DHT22;68007;51.312;12.372;2023-05-10T15:18:55;17.20;96.20
3418;DHT22;68007;51.312;12.372;2023-05-10T15:21:22;17.20;95.80
3418;DHT22;68007;51.312;12.372;2023-05-10T15:23:50;17.20;95.90
3418;DHT22;68007;51.312;12.372;2023-05-10T15:26:17;17.20;96.10
3418;DHT22;68007;51.312;12.372;2023-05-10T15:28:45;17.20;96.10
3418;DHT22;68007;51.312;12.372;2023-05-10T15:31:14;17.20;96.10
3418;DHT22;68007;51.312;12.372;2023-05-10T15:33:42;17.20;96.50
3418;DHT22;68007;51.312;12.372;2023-05-10T15:36:09;17.30;96.20
3418;DHT22;68007;51.312;12.372;2023-05-10T15:38:37;17.30;96.20
3418;DHT22;68007;51.312;12.372;2023-05-10T15:41:05;17.20;96.40
3418;DHT22;68007;51.312;12.372;2023-05-10T15:43:32;17.30;96.60
3418;DHT22;68007;51.312;12.372;2023-05-10T15:46:00;17.30;96.70